Time;durP1;ratioP1;P1;durP2;ratioP2;P2;SDS_P1;SDS_P2;PMS_P1;PMS_P2;Temp;Humidity;BMP_temperature;BMP_pressure;BME280_temperature;BME280_humidity;BME280_pressure;Samples;Min_cycle;Max_cycle;Signal;HPM_P1;HPM_P2
2023/09/05 00:00:23;;;;;;;3.28;2.97;;;16.10;99.90;;;;;;4977241;28;20202;-65
2023/09/05 00:02:49;;;;;;;4.30;3.63;;;16.10;99.90;;;;;;4949735;28;20227;-65
2023/09/05 00:05:19;;;;;;;3.45;3.08;;;16.00;99.90;;;;;;4964814;28;20219;-65
2023/09/05 00:07:47;;;;;;;4.68;3.33;;;16.00;99.90;;;;;;4960403;28;20235;-65
2023/09/05 00:10:14;;;;;;;8.50;3.60;;;16.00;99.90;;;;;;4938705;28;20795;-65
2023/09/05 00:12:42;;;;;;;3.58;3.17;;;16.00;99.90;;;;;;4961412;28;20215;-65
2023/09/05 00:15:10;;;;;;;4.82;3.20;;;16.10;99.90;;;;;;4960978;28;20223;-65
2023/09/05 00:17:37;;;;;;;4.90;3.15;;;16.10;99.90;;;;;;4963728;28;20219;-65
2023/09/05 00:20:05;;;;;;;5.32;3.40;;;16.10;99.90;;;;;;4953947;28;20222;-65
2023/09/05 00:22:32;;;;;;;6.05;3.28;;;16.10;99.90;;;;;;4973172;28;20229;-66
2023/09/05 00:25:00;;;;;;;5.22;3.50;;;16.10;99.90;;;;;;4960145;28;20225;-66
2023/09/05 00:27:26;;;;;;;4.38;3.13;;;15.90;99.90;;;;;;4932059;28;21084;-66
2023/09/05 00:29:53;;;;;;;3.42;3.05;;;15.90;99.90;;;;;;4968590;28;20199;-66
2023/09/05 00:32:20;;;;;;;4.40;3.50;;;15.90;99.90;;;;;;4968728;28;20576;-66
2023/09/05 00:34:48;;;;;;;5.05;3.28;;;15.80;99.90;;;;;;4968827;28;20202;-66
2023/09/05 00:37:21;;;;;;;5.88;3.65;;;15.80;99.90;;;;;;4980063;28;20198;-66
2023/09/05 00:39:48;;;;;;;3.47;3.17;;;15.90;99.90;;;;;;4973774;28;20203;-66
2023/09/05 00:42:17;;;;;;;5.95;3.40;;;15.90;99.90;;;;;;4946281;28;20204;-65
2023/09/05 00:44:47;;;;;;;5.25;3.35;;;16.00;99.90;;;;;;4970443;28;20326;-66
2023/09/05 00:47:14;;;;;;;3.88;2.85;;;;;;;;;;4964395;28;21196;-66
2023/09/05 00:49:47;;;;;;;3.72;3.35;;;15.80;99.90;;;;;;4968312;28;20399;-66
2023/09/05 00:52:14;;;;;;;6.20;2.90;;;15.80;99.90;;;;;;4982644;28;20245;-66
2023/09/05 00:54:42;;;;;;;3.97;3.08;;;15.80;99.90;;;;;;4975992;28;20225;-66
2023/09/05 00:57:14;;;;;;;5.13;3.58;;;16.10;99.90;;;;;;4971867;28;20687;-66
2023/09/05 00:59:42;;;;;;;5.50;3.50;;;15.70;99.90;;;;;;4974360;28;20206;-66
2023/09/05 01:02:10;;;;;;;3.85;3.30;;;15.50;99.90;;;;;;4969673;28;20211;-66
2023/09/05 01:04:37;;;;;;;4.32;3.28;;;15.60;99.90;;;;;;4959886;28;20226;-66
2023/09/05 01:07:10;;;;;;;4.25;3.85;;;15.70;99.90;;;;;;4981115;28;20229;-66
2023/09/05 01:09:43;;;;;;;4.75;3.60;;;15.50;99.90;;;;;;4970632;28;20620;-66
2023/09/05 01:12:10;;;;;;;6.88;3.60;;;15.60;99.90;;;;;;4979471;28;20203;-66
2023/09/05 01:14:37;;;;;;;10.80;3.70;;;15.60;99.90;;;;;;4943984;28;20204;-66
2023/09/05 01:17:06;;;;;;;6.63;3.53;;;15.60;99.90;;;;;;4972224;28;20217;-66
2023/09/05 01:19:35;;;;;;;4.53;2.83;;;15.60;99.90;;;;;;4974711;28;23094;-66
2023/09/05 01:22:12;;;;;;;4.97;3.88;;;15.60;99.90;;;;;;4975938;28;20202;-65
2023/09/05 01:24:40;;;;;;;6.07;3.45;;;15.40;99.90;;;;;;4969289;28;21056;-66
2023/09/05 01:27:11;;;;;;;3.83;3.42;;;15.40;99.90;;;;;;4977420;28;20226;-66
2023/09/05 01:29:39;;;;;;;6.53;3.70;;;15.60;99.90;;;;;;4944502;28;20235;-66
2023/09/05 01:32:08;;;;;;;4.78;3.50;;;15.80;99.90;;;;;;4970447;28;20198;-66
2023/09/05 01:34:35;;;;;;;10.60;3.40;;;15.50;99.90;;;;;;4970903;28;20219;-66
2023/09/05 01:37:02;;;;;;;4.32;3.25;;;15.60;99.90;;;;;;4971222;28;20214;-65
2023/09/05 01:39:29;;;;;;;4.95;3.50;;;15.60;99.90;;;;;;4971466;28;20214;-66
2023/09/05 01:41:59;;;;;;;3.80;3.40;;;15.50;99.90;;;;;;4980618;28;22899;-66
2023/09/05 01:44:26;;;;;;;4.80;4.30;;;15.40;99.90;;;;;;4977980;28;20290;-66
2023/09/05 01:46:52;;;;;;;3.97;3.33;;;15.50;99.90;;;;;;4942931;28;20908;-65
2023/09/05 01:49:19;;;;;;;5.50;3.78;;;;;;;;;;4970410;28;20571;-66
2023/09/05 01:51:46;;;;;;;4.50;3.97;;;15.30;99.90;;;;;;4972064;28;20214;-66
2023/09/05 01:54:13;;;;;;;6.03;3.72;;;;;;;;;;4963584;28;20203;-66
2023/09/05 01:56:40;;;;;;;4.05;3.65;;;16.60;99.90;;;;;;4976787;28;21532;-66
2023/09/05 01:59:09;;;;;;;3.53;3.22;;;15.20;99.90;;;;;;4977592;28;20205;-65
2023/09/05 02:01:36;;;;;;;6.05;3.72;;;15.20;99.90;;;;;;4935529;28;20226;-66
2023/09/05 02:04:02;;;;;;;4.97;3.80;;;15.20;99.90;;;;;;4966102;28;20210;-66
2023/09/05 02:06:29;;;;;;;4.20;3.78;;;15.20;99.90;;;;;;4960039;28;20206;-66
2023/09/05 02:08:56;;;;;;;6.13;4.00;;;15.20;99.90;;;;;;4958400;28;20249;-66
2023/09/05 02:11:23;;;;;;;4.15;3.33;;;15.30;99.90;;;;;;4966609;28;20215;-66
2023/09/05 02:13:49;;;;;;;5.05;3.30;;;15.40;99.90;;;;;;4961927;28;20673;-66
2023/09/05 02:16:19;;;;;;;5.20;3.60;;;15.40;99.90;;;;;;4942548;28;20233;-66
2023/09/05 02:18:47;;;;;;;6.03;3.25;;;15.50;99.90;;;;;;4966324;28;20213;-66
2023/09/05 02:21:14;;;;;;;4.32;3.25;;;15.50;99.90;;;;;;4968520;28;20233;-66
2023/09/05 02:23:40;;;;;;;4.00;3.60;;;15.50;99.90;;;;;;4975851;28;20194;-66
2023/09/05 02:26:08;;;;;;;7.07;3.80;;;16.00;99.90;;;;;;4952737;28;20696;-66
2023/09/05 02:28:35;;;;;;;4.50;3.40;;;15.50;99.90;;;;;;4966753;28;20234;-66
2023/09/05 02:31:05;;;;;;;6.40;3.85;;;15.50;99.90;;;;;;4939734;28;21356;-66
2023/09/05 02:33:36;;;;;;;4.32;3.15;;;15.50;99.90;;;;;;4967195;28;20245;-66
2023/09/05 02:36:10;;;;;;;8.75;3.10;;;15.80;99.90;;;;;;4971438;28;20567;-66
2023/09/05 02:38:37;;;;;;;5.07;3.20;;;15.60;99.90;;;;;;4978279;28;20198;-66
2023/09/05 02:41:04;;;;;;;5.35;3.65;;;15.40;99.90;;;;;;4969196;28;20230;-66
2023/09/05 02:43:31;;;;;;;4.05;3.50;;;15.40;99.90;;;;;;4971323;28;20215;-66
2023/09/05 02:45:58;;;;;;;4.85;3.45;;;16.20;99.90;;;;;;4954479;28;20206;-66
2023/09/05 02:48:25;;;;;;;4.85;4.00;;;15.40;99.90;;;;;;4975080;28;20707;-66
2023/09/05 02:51:03;;;;;;;4.10;3.70;;;15.30;99.90;;;;;;4970317;28;20871;-66
2023/09/05 02:53:30;;;;;;;4.90;3.70;;;15.30;99.90;;;;;;4981784;28;20199;-65
2023/09/05 02:55:56;;;;;;;4.07;3.38;;;15.20;99.90;;;;;;4975596;28;20197;-66
2023/09/05 02:58:26;;;;;;;4.03;3.55;;;15.30;99.90;;;;;;4971357;28;20218;-66
2023/09/05 03:00:54;;;;;;;6.80;3.90;;;15.20;99.90;;;;;;4962693;28;20199;-66
2023/09/05 03:03:20;;;;;;;5.88;3.67;;;15.20;99.90;;;;;;4964030;28;20919;-65
2023/09/05 03:05:46;;;;;;;5.03;3.67;;;15.20;99.90;;;;;;4972881;28;20556;-66
2023/09/05 03:08:14;;;;;;;3.72;3.38;;;15.30;99.90;;;;;;4970875;28;20230;-66
2023/09/05 03:10:41;;;;;;;4.53;3.40;;;15.30;99.90;;;;;;4972583;28;20221;-66
2023/09/05 03:13:08;;;;;;;3.50;3.13;;;15.20;99.90;;;;;;4961873;28;20211;-65
2023/09/05 03:15:34;;;;;;;5.30;3.67;;;15.20;99.90;;;;;;4982842;28;20199;-66
2023/09/05 03:18:01;;;;;;;3.95;3.55;;;15.50;99.90;;;;;;4945397;28;20250;-66
2023/09/05 03:20:29;;;;;;;4.10;3.70;;;15.30;99.90;;;;;;4972228;28;20222;-66
2023/09/05 03:22:55;;;;;;;4.70;3.40;;;15.30;99.90;;;;;;4965245;28;20304;-66
2023/09/05 03:25:24;;;;;;;5.45;3.55;;;15.30;99.90;;;;;;4970728;28;21448;-66
2023/09/05 03:27:50;;;;;;;5.13;4.05;;;15.20;99.90;;;;;;4968781;28;20225;-66
2023/09/05 03:30:17;;;;;;;5.28;3.28;;;15.50;99.90;;;;;;4965287;28;20202;-66
2023/09/05 03:32:44;;;;;;;4.13;3.53;;;15.30;99.90;;;;;;4938633;28;20235;-65
2023/09/05 03:35:11;;;;;;;3.83;3.42;;;15.30;99.90;;;;;;4971804;28;20211;-66
2023/09/05 03:37:38;;;;;;;3.83;3.42;;;15.30;99.90;;;;;;4957079;28;20208;-65
2023/09/05 03:40:06;;;;;;;6.75;3.47;;;15.20;99.90;;;;;;4976959;28;20203;-66
2023/09/05 03:42:36;;;;;;;4.88;3.90;;;15.30;99.90;;;;;;4968210;28;20318;-66
2023/09/05 03:45:03;;;;;;;5.00;3.85;;;15.20;99.90;;;;;;4962575;28;20210;-66
2023/09/05 03:47:30;;;;;;;3.97;3.60;;;15.20;99.90;;;;;;4971287;28;20723;-65
2023/09/05 03:49:56;;;;;;;5.25;3.85;;;15.00;99.90;;;;;;4935900;28;20366;-66
2023/09/05 03:52:23;;;;;;;4.53;3.55;;;15.00;99.90;;;;;;4959930;28;20226;-65
2023/09/05 03:54:50;;;;;;;4.72;3.72;;;15.00;99.90;;;;;;4956155;28;20230;-66
2023/09/05 03:57:17;;;;;;;5.57;3.55;;;15.50;99.90;;;;;;4968062;28;20194;-66
2023/09/05 03:59:45;;;;;;;4.60;3.78;;;14.90;99.90;;;;;;4940854;28;20256;-66
2023/09/05 04:02:12;;;;;;;4.68;4.13;;;;;;;;;;4960750;28;22415;-65
2023/09/05 04:04:39;;;;;;;6.18;4.78;;;14.70;99.90;;;;;;4933695;28;20208;-66
2023/09/05 04:07:07;;;;;;;6.35;5.25;;;14.80;99.90;;;;;;4965794;28;20302;-65
2023/09/05 04:09:34;;;;;;;5.07;4.63;;;14.50;99.90;;;;;;4959467;28;20242;-65
2023/09/05 04:12:01;;;;;;;6.40;4.32;;;14.50;99.90;;;;;;4972583;28;21127;-65
2023/09/05 04:14:27;;;;;;;5.38;4.40;;;13.60;99.90;;;;;;4963484;28;20210;-66
2023/09/05 04:16:55;;;;;;;6.90;4.00;;;14.40;99.90;;;;;;4965060;28;20576;-65
2023/09/05 04:19:22;;;;;;;4.35;3.92;;;14.10;99.90;;;;;;4945072;28;20215;-66
2023/09/05 04:21:49;;;;;;;5.53;3.92;;;14.40;99.90;;;;;;4968497;28;20214;-66
2023/09/05 04:24:16;;;;;;;5.07;4.15;;;14.30;99.90;;;;;;4971473;28;20222;-65
2023/09/05 04:26:45;;;;;;;6.05;4.22;;;14.40;99.90;;;;;;4982804;28;20206;-65
2023/09/05 04:29:12;;;;;;;5.10;4.38;;;14.40;99.90;;;;;;4975007;28;20778;-66
2023/09/05 04:31:38;;;;;;;5.80;3.92;;;14.50;99.90;;;;;;4961707;28;20221;-66
2023/09/05 04:34:06;;;;;;;6.45;4.10;;;14.40;99.90;;;;;;4934098;28;20892;-66
2023/09/05 04:36:36;;;;;;;7.05;4.32;;;14.50;99.90;;;;;;4972979;28;20214;-65
2023/09/05 04:39:03;;;;;;;4.22;3.83;;;16.30;99.90;;;;;;4957136;28;20206;-66
2023/09/05 04:41:30;;;;;;;4.57;4.00;;;14.50;99.90;;;;;;4978657;28;20203;-66
2023/09/05 04:43:57;;;;;;;4.88;4.15;;;14.60;99.90;;;;;;4975092;28;20739;-65
2023/09/05 04:46:23;;;;;;;5.32;3.92;;;14.70;99.90;;;;;;4967862;28;20207;-66
2023/09/05 04:48:50;;;;;;;7.40;4.10;;;15.60;99.90;;;;;;4959022;28;20948;-65
2023/09/05 04:51:18;;;;;;;4.55;3.75;;;14.70;99.90;;;;;;4925319;28;20232;-65
2023/09/05 04:53:45;;;;;;;3.88;3.45;;;14.80;99.90;;;;;;4954775;28;20202;-66
2023/09/05 04:56:12;;;;;;;6.38;3.55;;;14.80;99.90;;;;;;4962578;28;20308;-66
2023/09/05 04:58:39;;;;;;;7.00;4.03;;;14.60;99.90;;;;;;4977126;28;20197;-65
2023/09/05 05:01:05;;;;;;;4.18;3.78;;;14.70;99.90;;;;;;4970814;28;20207;-66
2023/09/05 05:03:33;;;;;;;6.45;3.80;;;14.30;99.90;;;;;;4958516;28;20211;-65
2023/09/05 05:06:00;;;;;;;5.55;3.83;;;14.60;99.90;;;;;;4934735;28;20596;-65
2023/09/05 05:08:28;;;;;;;6.10;4.32;;;14.70;99.90;;;;;;4958644;28;20238;-66
2023/09/05 05:10:55;;;;;;;6.90;3.97;;;14.70;99.90;;;;;;4961865;28;20221;-65
2023/09/05 05:13:22;;;;;;;4.88;4.30;;;15.40;99.90;;;;;;4966101;28;20807;-65
2023/09/05 05:15:49;;;;;;;6.85;4.43;;;17.40;99.90;;;;;;4949903;28;23149;-65
2023/09/05 05:18:16;;;;;;;6.78;4.45;;;14.80;99.90;;;;;;4956618;28;20603;-65
2023/09/05 05:20:43;;;;;;;7.47;4.72;;;14.80;99.90;;;;;;4945967;28;20205;-66
2023/09/05 05:23:09;;;;;;;7.38;4.20;;;14.90;99.90;;;;;;4980048;28;20243;-65
2023/09/05 05:25:38;;;;;;;8.27;5.13;;;14.90;99.90;;;;;;4968891;28;20210;-65
2023/09/05 05:28:05;;;;;;;6.40;4.25;;;14.90;99.90;;;;;;4967681;28;20241;-65
2023/09/05 05:30:36;;;;;;;7.43;4.55;;;15.00;99.90;;;;;;4978772;28;20927;-65
2023/09/05 05:33:03;;;;;;;5.32;4.07;;;14.90;99.90;;;;;;4982042;28;20199;-65
2023/09/05 05:35:30;;;;;;;8.27;5.05;;;15.00;99.90;;;;;;4974046;28;20207;-65
2023/09/05 05:37:57;;;;;;;6.25;4.53;;;15.10;99.90;;;;;;4942971;28;20238;-65
2023/09/05 05:40:24;;;;;;;5.03;4.50;;;15.10;99.90;;;;;;4958420;28;20226;-65
2023/09/05 05:42:52;;;;;;;4.63;4.15;;;15.00;99.90;;;;;;4973575;28;20198;-65
2023/09/05 05:45:19;;;;;;;7.18;4.72;;;15.10;99.90;;;;;;4971971;28;20720;-65
2023/09/05 05:47:45;;;;;;;4.75;4.25;;;15.10;99.90;;;;;;4969300;28;20250;-65
2023/09/05 05:50:12;;;;;;;4.78;3.95;;;15.20;99.90;;;;;;4967897;28;20229;-65
2023/09/05 05:52:39;;;;;;;6.05;4.40;;;15.20;99.90;;;;;;4938352;28;21699;-65
2023/09/05 05:55:07;;;;;;;6.78;4.20;;;15.20;99.90;;;;;;4973538;28;20265;-65
2023/09/05 05:57:34;;;;;;;5.63;4.70;;;15.30;99.90;;;;;;4967370;28;20779;-65
2023/09/05 06:00:04;;;;;;;5.28;4.07;;;15.40;99.90;;;;;;4973673;28;20211;-65
2023/09/05 06:02:31;;;;;;;8.30;3.97;;;15.50;99.90;;;;;;4966605;28;20305;-65
2023/09/05 06:04:58;;;;;;;4.88;4.22;;;15.40;99.90;;;;;;4975559;28;20206;-65
2023/09/05 06:07:24;;;;;;;4.13;3.65;;;15.50;99.90;;;;;;4941337;28;20207;-65
2023/09/05 06:09:51;;;;;;;6.57;3.70;;;15.60;99.90;;;;;;4977948;28;20234;-65
2023/09/05 06:12:19;;;;;;;6.97;4.05;;;;;;;;;;4957057;28;20207;-65
2023/09/05 06:14:47;;;;;;;4.57;4.00;;;15.70;99.90;;;;;;4971319;28;20214;-65
2023/09/05 06:17:15;;;;;;;9.05;4.13;;;15.70;99.90;;;;;;4963187;28;20206;-65
2023/09/05 06:19:42;;;;;;;5.13;4.05;;;15.90;99.90;;;;;;4963158;28;20210;-65
2023/09/05 06:22:08;;;;;;;4.90;4.40;;;15.90;99.90;;;;;;4985847;28;20199;-66
2023/09/05 06:24:35;;;;;;;6.55;3.97;;;15.90;99.90;;;;;;4942228;28;20211;-66
2023/09/05 06:27:02;;;;;;;7.07;4.30;;;15.90;99.90;;;;;;4959413;28;20226;-65
2023/09/05 06:29:29;;;;;;;4.47;4.07;;;16.00;99.90;;;;;;4973250;28;20235;-65
2023/09/05 06:31:55;;;;;;;5.15;4.25;;;16.00;99.90;;;;;;4972255;28;20209;-66
2023/09/05 06:34:24;;;;;;;6.32;4.28;;;16.10;99.90;;;;;;4967806;28;20206;-66
2023/09/05 06:36:51;;;;;;;5.75;4.07;;;16.20;99.90;;;;;;4976040;28;20250;-65
2023/09/05 06:39:18;;;;;;;4.80;3.70;;;16.20;99.90;;;;;;4942672;28;20665;-65
2023/09/05 06:41:45;;;;;;;8.05;4.03;;;16.20;99.90;;;;;;4984682;28;20207;-65
2023/09/05 06:44:11;;;;;;;8.13;4.10;;;16.30;99.90;;;;;;4964665;28;20222;-65
2023/09/05 06:46:38;;;;;;;5.63;4.05;;;16.30;99.90;;;;;;4980465;28;20198;-65
2023/09/05 06:49:05;;;;;;;5.60;4.32;;;16.30;99.90;;;;;;4967162;28;20239;-65
2023/09/05 06:51:33;;;;;;;17.38;4.40;;;16.40;99.90;;;;;;4978274;28;20206;-65
2023/09/05 06:54:00;;;;;;;6.93;3.95;;;16.70;99.90;;;;;;4942307;28;21093;-65
2023/09/05 06:56:27;;;;;;;6.97;4.15;;;;;;;;;;4984319;28;20399;-65
2023/09/05 06:58:54;;;;;;;8.52;4.20;;;16.70;99.90;;;;;;4962782;28;21110;-65
2023/09/05 07:01:21;;;;;;;8.52;4.20;;;16.70;99.90;;;;;;4982999;28;20199;-65
2023/09/05 07:03:47;;;;;;;6.60;4.10;;;16.60;99.90;;;;;;4958801;28;20206;-65
2023/09/05 07:06:18;;;;;;;8.80;4.38;;;16.60;99.90;;;;;;4981387;28;20203;-65
2023/09/05 07:08:46;;;;;;;5.50;4.25;;;16.70;99.90;;;;;;4978844;28;20494;-65
2023/09/05 07:11:13;;;;;;;9.40;4.85;;;16.70;99.90;;;;;;4942330;28;20206;-65
2023/09/05 07:13:40;;;;;;;7.97;4.50;;;17.00;99.90;;;;;;4969138;28;20199;-65
2023/09/05 07:16:07;;;;;;;8.85;4.43;;;16.80;99.90;;;;;;4982413;28;20206;-65
2023/09/05 07:18:33;;;;;;;7.07;4.57;;;15.90;99.90;;;;;;4971376;28;20230;-65
2023/09/05 07:21:00;;;;;;;7.20;4.30;;;16.90;99.90;;;;;;4971289;28;20199;-65
2023/09/05 07:23:27;;;;;;;5.55;4.43;;;17.00;99.90;;;;;;4968780;28;20581;-65
2023/09/05 07:25:56;;;;;;;10.05;4.68;;;17.00;99.90;;;;;;4947063;28;20203;-64
2023/09/05 07:28:22;;;;;;;7.05;4.65;;;17.10;99.90;;;;;;4976037;28;20203;-65
2023/09/05 07:30:49;;;;;;;7.80;5.07;;;17.20;99.90;;;;;;4972640;28;20234;-65
2023/09/05 07:33:16;;;;;;;11.85;5.28;;;17.20;99.90;;;;;;4976307;28;20207;-65
2023/09/05 07:35:44;;;;;;;7.55;4.55;;;17.30;99.90;;;;;;4959133;28;20231;-65
2023/09/05 07:38:12;;;;;;;7.97;4.70;;;17.30;99.90;;;;;;4980774;28;20227;-65
2023/09/05 07:40:39;;;;;;;10.27;5.25;;;17.30;99.90;;;;;;4973165;28;20302;-65
2023/09/05 07:43:07;;;;;;;6.63;4.55;;;17.30;99.90;;;;;;4945376;28;20215;-66
2023/09/05 07:45:35;;;;;;;7.50;4.18;;;17.40;99.90;;;;;;4966448;28;20218;-66
2023/09/05 07:48:02;;;;;;;6.47;4.28;;;17.40;99.90;;;;;;4979496;28;20203;-65
2023/09/05 07:50:29;;;;;;;9.82;4.90;;;17.50;99.90;;;;;;4963736;28;20230;-66
2023/09/05 07:52:55;;;;;;;6.65;4.25;;;17.60;99.90;;;;;;4980564;28;21176;-65
2023/09/05 07:55:22;;;;;;;10.13;4.55;;;17.50;99.90;;;;;;4973437;28;20214;-66
2023/09/05 07:57:51;;;;;;;8.00;4.15;;;17.60;99.90;;;;;;4945971;28;20878;-65
2023/09/05 08:00:20;;;;;;;6.35;3.90;;;17.80;99.90;;;;;;4973158;28;20213;-65
2023/09/05 08:02:47;;;;;;;9.05;4.60;;;17.80;99.90;;;;;;4976396;28;20275;-65
2023/09/05 08:05:14;;;;;;;8.50;4.30;;;17.90;99.90;;;;;;4971781;28;20557;-65
2023/09/05 08:07:41;;;;;;;10.85;4.57;;;17.90;99.90;;;;;;4968308;28;21107;-66
2023/09/05 08:10:08;;;;;;;6.47;4.32;;;17.90;99.90;;;;;;4977019;28;20230;-66
2023/09/05 08:12:35;;;;;;;10.98;4.63;;;;;;;;;;4973019;28;20211;-65
2023/09/05 08:15:02;;;;;;;13.45;4.53;;;18.10;99.90;;;;;;4943988;28;20206;-66
2023/09/05 08:17:31;;;;;;;9.32;4.50;;;18.10;99.90;;;;;;4967571;28;20234;-65
2023/09/05 08:19:58;;;;;;;6.63;4.25;;;18.20;99.90;;;;;;4947951;28;20664;-66
2023/09/05 08:22:25;;;;;;;8.07;4.80;;;18.30;99.90;;;;;;4972483;28;20227;-66
2023/09/05 08:24:52;;;;;;;12.18;4.88;;;18.30;99.90;;;;;;4983616;28;20199;-65
2023/09/05 08:27:28;;;;;;;5.45;3.95;;;18.40;99.90;;;;;;4972965;28;20206;-66
2023/09/05 08:29:55;;;;;;;7.55;4.00;;;18.50;99.90;;;;;;4941733;28;20232;-67
2023/09/05 08:32:22;;;;;;;7.00;3.78;;;18.60;99.90;;;;;;4966966;28;20230;-66
2023/09/05 08:34:50;;;;;;;5.65;3.55;;;18.90;99.90;;;;;;4967115;28;20211;-66
2023/09/05 08:37:18;;;;;;;6.18;3.17;;;18.70;99.90;;;;;;4975176;28;20222;-66
2023/09/05 08:39:45;;;;;;;6.95;3.25;;;18.70;99.90;;;;;;4974196;28;20244;-66
2023/09/05 08:42:12;;;;;;;7.07;2.90;;;18.70;99.90;;;;;;4969412;28;20583;-66
2023/09/05 08:44:40;;;;;;;5.22;3.08;;;18.70;99.90;;;;;;4976170;28;20214;-66
2023/09/05 08:47:07;;;;;;;6.93;2.30;;;18.90;99.90;;;;;;4936005;28;20253;-66
2023/09/05 08:49:34;;;;;;;7.05;2.85;;;18.90;99.90;;;;;;4970504;28;20253;-66
2023/09/05 08:52:04;;;;;;;4.40;2.60;;;19.00;99.90;;;;;;4954421;28;20397;-66
2023/09/05 08:54:31;;;;;;;6.70;2.22;;;19.10;99.90;;;;;;4980262;28;20211;-66
2023/09/05 08:57:00;;;;;;;2.70;2.03;;;19.10;99.90;;;;;;4952966;28;20805;-66
2023/09/05 08:59:27;;;;;;;2.67;2.20;;;19.10;99.90;;;;;;4979173;28;20562;-66
2023/09/05 09:01:54;;;;;;;4.25;2.17;;;19.20;99.90;;;;;;4930456;28;20737;-66
2023/09/05 09:04:21;;;;;;;5.32;2.15;;;19.20;99.90;;;;;;4970784;28;20251;-66
2023/09/05 09:06:55;;;;;;;3.95;2.20;;;19.30;99.90;;;;;;4968299;28;20210;-66
2023/09/05 09:09:39;;;;;;;2.72;2.38;;;19.30;99.90;;;;;;4971366;28;20277;-66
2023/09/05 09:12:07;;;;;;;3.35;1.88;;;19.40;99.90;;;;;;4967558;28;20309;-66
2023/09/05 09:14:34;;;;;;;2.88;1.83;;;19.30;99.90;;;;;;4988119;28;20209;-66
2023/09/05 09:17:01;;;;;;;2.03;1.88;;;19.50;99.90;;;;;;4942162;28;21598;-66
2023/09/05 09:19:29;;;;;;;5.07;2.20;;;19.50;99.90;;;;;;4967801;28;20269;-66
2023/09/05 09:22:00;;;;;;;5.68;2.45;;;19.60;99.90;;;;;;4969490;28;20203;-65
2023/09/05 09:24:33;;;;;;;2.35;2.15;;;19.70;99.90;;;;;;4974884;28;20207;-66
2023/09/05 09:27:04;;;;;;;3.53;2.35;;;19.80;99.90;;;;;;4972395;28;20781;-65
2023/09/05 09:29:32;;;;;;;3.42;2.60;;;19.80;99.90;;;;;;4985475;28;20229;-65
2023/09/05 09:32:04;;;;;;;3.20;1.98;;;19.90;99.90;;;;;;4938511;28;21958;-66
2023/09/05 09:34:31;;;;;;;2.72;2.45;;;19.90;99.90;;;;;;4985427;28;20264;-65
2023/09/05 09:36:58;;;;;;;4.70;2.20;;;20.00;99.90;;;;;;4958449;28;20483;-66
2023/09/05 09:39:25;;;;;;;9.25;2.97;;;19.90;99.90;;;;;;4973663;28;20255;-65
2023/09/05 09:41:52;;;;;;;3.33;2.20;;;20.20;99.90;;;;;;4961390;28;20228;-65
2023/09/05 09:44:28;;;;;;;3.70;2.60;;;20.10;99.90;;;;;;4977673;28;20223;-65
2023/09/05 09:46:56;;;;;;;3.10;2.30;;;20.30;99.90;;;;;;4981985;28;20222;-65
2023/09/05 09:49:24;;;;;;;5.07;2.38;;;20.40;99.90;;;;;;4936217;28;20230;-65
2023/09/05 09:51:55;;;;;;;3.88;2.58;;;20.30;99.90;;;;;;4965229;28;20235;-65
2023/09/05 09:54:29;;;;;;;3.67;2.70;;;20.50;99.90;;;;;;4959046;28;20900;-65
2023/09/05 09:57:00;;;;;;;4.78;2.50;;;20.40;99.90;;;;;;4971483;28;20234;-65
2023/09/05 09:59:35;;;;;;;2.72;2.30;;;20.40;99.90;;;;;;4961865;28;20587;-65
2023/09/05 10:02:05;;;;;;;3.20;2.38;;;20.50;99.90;;;;;;4968454;28;20267;-65
2023/09/05 10:04:33;;;;;;;3.75;2.35;;;20.60;99.90;;;;;;4937467;28;20669;-65
2023/09/05 10:07:01;;;;;;;2.47;2.10;;;20.60;99.90;;;;;;4963346;28;20428;-65
2023/09/05 10:09:29;;;;;;;3.08;2.47;;;20.60;99.90;;;;;;4952956;28;20235;-65
2023/09/05 10:11:58;;;;;;;5.78;2.30;;;20.70;99.90;;;;;;4967956;28;20205;-64
2023/09/05 10:14:25;;;;;;;3.78;2.53;;;20.70;99.90;;;;;;4965942;28;20610;-65
2023/09/05 10:16:54;;;;;;;3.03;2.47;;;20.80;99.90;;;;;;4973920;28;20259;-65
2023/09/05 10:19:22;;;;;;;2.35;2.08;;;20.80;99.90;;;;;;4980604;28;20698;-65
2023/09/05 10:21:51;;;;;;;2.60;2.05;;;20.90;99.90;;;;;;4939773;28;20346;-65
2023/09/05 10:24:18;;;;;;;2.40;2.17;;;21.00;99.90;;;;;;4954601;28;20210;-65
2023/09/05 10:26:47;;;;;;;2.47;1.77;;;21.10;99.90;;;;;;4957613;28;20232;-65
2023/09/05 10:29:40;;;;;;;3.00;2.05;;;21.10;99.90;;;;;;4968218;28;20226;-66
2023/09/05 10:32:09;;;;;;;2.40;2.10;;;21.10;99.90;;;;;;4964126;28;20226;-65
2023/09/05 10:35:02;;;;;;;2.47;2.22;;;21.10;99.90;;;;;;4965712;28;20479;-65
2023/09/05 10:37:43;;;;;;;3.58;2.78;;;21.20;99.90;;;;;;4977353;28;20226;-65
2023/09/05 10:40:11;;;;;;;4.50;2.40;;;21.20;99.90;;;;;;4966093;28;20214;-65
2023/09/05 10:42:43;;;;;;;6.03;2.50;;;21.30;99.90;;;;;;4966509;28;20720;-65
2023/09/05 10:45:30;;;;;;;3.25;2.38;;;21.30;99.90;;;;;;4966867;28;20223;-65
2023/09/05 10:48:09;;;;;;;5.10;2.00;;;21.40;99.90;;;;;;4975406;28;20218;-65
2023/09/05 10:51:13;;;;;;;2.35;1.90;;;21.40;99.90;;;;;;4981672;28;20911;-65
2023/09/05 10:53:41;;;;;;;3.10;2.38;;;21.40;99.90;;;;;;4975137;28;20316;-65
2023/09/05 10:56:39;;;;;;;4.88;2.10;;;21.50;99.90;;;;;;4968929;28;20242;-65
2023/09/05 10:59:09;;;;;;;3.33;2.25;;;21.70;99.90;;;;;;4966423;28;20664;-65
2023/09/05 11:01:52;;;;;;;4.43;2.30;;;21.70;99.90;;;;;;4971720;28;20207;-65
2023/09/05 11:04:34;;;;;;;4.55;2.25;;;22.10;99.90;;;;;;4977672;28;20209;-65
2023/09/05 11:07:06;;;;;;;2.42;2.22;;;22.10;99.90;;;;;;4941249;28;28246;-65
2023/09/05 11:09:48;;;;;;;2.90;2.00;;;22.10;99.90;;;;;;4976624;28;20242;-65
2023/09/05 11:12:15;;;;;;;1.90;1.80;;;22.20;99.90;;;;;;4973059;28;20265;-65
2023/09/05 11:14:42;;;;;;;3.08;2.13;;;22.20;99.90;;;;;;4975296;28;20230;-65
2023/09/05 11:17:13;;;;;;;2.55;2.35;;;22.20;99.90;;;;;;4964211;28;20199;-65
2023/09/05 11:19:45;;;;;;;3.03;2.20;;;22.20;99.90;;;;;;4974269;28;20198;-65
2023/09/05 11:22:15;;;;;;;3.20;2.08;;;22.20;99.90;;;;;;4979582;28;20592;-65
2023/09/05 11:24:48;;;;;;;6.10;2.10;;;22.20;99.90;;;;;;4938757;28;20211;-65
2023/09/05 11:27:17;;;;;;;3.00;1.98;;;22.30;99.90;;;;;;4981062;28;20676;-65
2023/09/05 11:29:45;;;;;;;7.68;2.20;;;22.30;99.90;;;;;;4968853;28;20680;-65
2023/09/05 11:32:14;;;;;;;2.00;1.80;;;22.40;99.90;;;;;;4966923;28;20215;-65
2023/09/05 11:34:47;;;;;;;5.55;1.83;;;22.40;99.90;;;;;;4980953;28;20203;-65
2023/09/05 11:37:19;;;;;;;2.60;2.00;;;22.50;99.90;;;;;;4984236;28;20281;-65
2023/09/05 11:39:47;;;;;;;2.88;1.90;;;22.60;99.90;;;;;;4934393;28;20289;-65
2023/09/05 11:42:19;;;;;;;2.50;1.70;;;22.60;99.90;;;;;;4973919;28;20318;-65
2023/09/05 11:44:46;;;;;;;1.90;1.70;;;22.60;99.90;;;;;;4968237;28;20199;-65
2023/09/05 11:47:14;;;;;;;2.60;1.90;;;22.80;99.90;;;;;;4967859;28;20230;-65
2023/09/05 11:49:42;;;;;;;4.53;1.80;;;22.70;99.90;;;;;;4976404;28;20632;-65
2023/09/05 11:52:12;;;;;;;3.80;2.08;;;22.80;99.90;;;;;;4954211;28;21728;-65
2023/09/05 11:54:41;;;;;;;2.03;1.77;;;22.90;99.90;;;;;;4937975;28;20589;-65
2023/09/05 11:57:09;;;;;;;1.73;1.60;;;22.90;99.90;;;;;;4965333;28;20676;-65
2023/09/05 11:59:36;;;;;;;2.20;2.00;;;22.90;99.90;;;;;;4924441;28;20257;-66
2023/09/05 12:02:07;;;;;;;2.63;2.00;;;23.00;99.90;;;;;;4959607;28;20207;-65
2023/09/05 12:04:35;;;;;;;4.90;2.10;;;23.00;99.90;;;;;;4962075;28;20219;-65
2023/09/05 12:07:05;;;;;;;7.13;2.20;;;23.00;99.90;;;;;;4972813;28;20222;-65
2023/09/05 12:09:33;;;;;;;6.13;2.35;;;22.90;99.90;;;;;;4972913;28;20405;-65
2023/09/05 12:12:11;;;;;;;5.10;2.58;;;23.00;99.90;;;;;;4920784;28;20727;-65
2023/09/05 12:14:52;;;;;;;4.85;2.80;;;23.10;99.90;;;;;;4963955;28;20198;-65
2023/09/05 12:17:19;;;;;;;2.80;1.95;;;23.10;99.90;;;;;;4950645;28;20199;-65
2023/09/05 12:19:48;;;;;;;5.78;1.98;;;23.20;99.90;;;;;;4971719;28;20194;-65
2023/09/05 12:22:27;;;;;;;2.92;1.80;;;23.30;99.90;;;;;;4959785;28;20420;-66
2023/09/05 12:25:14;;;;;;;2.47;1.92;;;23.20;99.90;;;;;;4969253;28;20774;-66
2023/09/05 12:27:42;;;;;;;2.67;1.90;;;23.20;99.90;;;;;;4928189;28;20207;-65
2023/09/05 12:30:23;;;;;;;4.45;2.20;;;23.30;99.90;;;;;;4963312;28;20210;-66
2023/09/05 12:32:50;;;;;;;10.38;2.40;;;23.60;99.90;;;;;;4962369;28;20635;-65
2023/09/05 12:35:17;;;;;;;4.40;2.10;;;23.60;99.90;;;;;;4950623;28;20596;-66
2023/09/05 12:37:43;;;;;;;6.53;2.55;;;23.60;99.90;;;;;;4980977;28;20203;-65
2023/09/05 12:40:15;;;;;;;6.47;2.42;;;23.60;99.90;;;;;;4971935;28;20198;-65
2023/09/05 12:42:43;;;;;;;3.13;2.30;;;23.60;99.90;;;;;;4936022;28;20250;-65
2023/09/05 12:45:11;;;;;;;8.32;2.28;;;23.90;99.90;;;;;;4976124;28;20201;-66
2023/09/05 12:47:38;;;;;;;2.95;2.45;;;23.90;99.90;;;;;;4962015;28;20314;-66
2023/09/05 12:50:12;;;;;;;6.82;2.92;;;23.90;99.90;;;;;;4962762;28;20202;-65
2023/09/05 12:52:41;;;;;;;4.43;2.47;;;23.90;99.90;;;;;;4972003;28;20214;-66
2023/09/05 12:55:08;;;;;;;6.15;3.00;;;23.90;99.90;;;;;;4981789;28;20662;-66